Miami Beach, Washington
Current Conditions -  °F | °C
As of 6:35 AM on Friday 31 Oct 2014 (Local Time) from KPWT Reporting Station
Broken Clouds Broken Clouds  
Wind Chill: 50°   Ceiling: 2900
Heat Index: 50°   Visibility: 10mi
Dew Point: 50°   Wind: 5mph
Humidity: 100%   Direction: 180°S
Pressure: 29.72"   Gusts: NA
Location:  47.6282°N, 122.837°W
Report Text: KPWT 311335Z AUTO 18004KT 10SM FEW004 SCT011 BKN029 10/10 A2972 RMK AO1 P0004
Loading
Personal Weather Stations






























Interactive Weather Map
Tropical Storm Tracking
New forecast layout! Learn more

10-Day Weather Forecast

Advertisements
Track Severe Weather on mobile